Wilton, New Hampshire
Current Conditions -  °F | °C
As of 1:51 AM on Monday 22 Dec 2014 (Local Time) from KASH Reporting Station
Overcast Overcast  
Wind Chill: 32°   Ceiling: 5000
Heat Index: 32°   Visibility: 10mi
Dew Point: 28°   Wind: 0mph
Humidity: 85%   Direction: NA
Pressure: 30.38"   Gusts: NA
Location:  42.85°N, 71.74°W
Report Text: KASH 220651Z AUTO 00000KT 10SM OVC050 00/M02 A3038 RMK AO2 T00001022 SLP548
Loading
Personal Weather Stations






























Interactive Weather Map New forecast layout! Learn more

10-Day Weather Forecast

Advertisements
Track Severe Weather on mobile